Time;durP1;ratioP1;P1;durP2;ratioP2;P2;SDS_P1;SDS_P2;PMS_P1;PMS_P2;Temp;Humidity;BMP_temperature;BMP_pressure;BME280_temperature;BME280_humidity;BME280_pressure;Samples;Min_cycle;Max_cycle;Signal;HPM_P1;HPM_P2
2021/06/08 00:02:12;;;;;;;56.58;34.83;;;12.80;97.10;;;;;;4959722;28;20382;-84
2021/06/08 00:04:40;;;;;;;57.33;36.42;;;12.70;96.90;;;;;;4935218;28;20055;-81
2021/06/08 00:07:06;;;;;;;58.08;34.90;;;12.70;96.60;;;;;;4935842;28;20429;-82
2021/06/08 00:09:32;;;;;;;51.83;34.15;;;12.70;96.50;;;;;;4938441;28;20058;-81
2021/06/08 00:12:01;;;;;;;48.30;33.15;;;12.80;96.50;;;;;;4960456;28;20327;-81
2021/06/08 00:14:27;;;;;;;54.03;32.70;;;12.70;96.80;;;;;;4941384;28;20498;-83
2021/06/08 00:16:53;;;;;;;45.53;30.35;;;12.70;96.70;;;;;;4942399;28;20046;-81
2021/06/08 00:19:19;;;;;;;53.58;33.03;;;12.80;96.50;;;;;;4967640;28;20434;-81
2021/06/08 00:21:45;;;;;;;52.50;31.95;;;12.80;96.40;;;;;;4949755;28;20039;-81
2021/06/08 00:24:10;;;;;;;57.70;34.10;;;12.80;96.60;;;;;;4953597;28;20031;-83
2021/06/08 00:26:37;;;;;;;54.88;34.83;;;12.80;96.60;;;;;;4953883;28;20111;-82
2021/06/08 00:29:03;;;;;;;50.65;34.08;;;12.70;96.50;;;;;;4945103;28;20102;-82
2021/06/08 00:31:29;;;;;;;51.00;33.70;;;12.70;96.60;;;;;;4954739;28;20129;-82
2021/06/08 00:33:55;;;;;;;51.22;33.40;;;12.70;96.50;;;;;;4925132;28;20050;-81
2021/06/08 00:36:21;;;;;;;55.42;34.22;;;12.70;96.60;;;;;;4928914;28;20031;-82
2021/06/08 00:38:46;;;;;;;52.92;34.28;;;12.70;96.50;;;;;;4952936;28;20105;-87
2021/06/08 00:41:13;;;;;;;61.75;36.30;;;12.70;96.80;;;;;;4946552;28;20050;-83
2021/06/08 00:43:44;;;;;;;61.88;37.22;;;12.70;96.80;;;;;;4929192;28;20043;-81
2021/06/08 00:46:13;;;;;;;62.67;38.78;;;12.70;96.50;;;;;;4944335;28;20082;-81
2021/06/08 00:48:40;;;;;;;64.93;39.35;;;12.60;96.60;;;;;;4945432;28;20461;-82
2021/06/08 00:51:17;;;;;;;71.35;41.97;;;12.60;96.60;;;;;;4958830;28;20081;-84
2021/06/08 00:53:43;;;;;;;77.05;42.33;;;12.60;96.80;;;;;;4932380;28;20035;-80
2021/06/08 00:56:08;;;;;;;72.25;41.60;;;12.60;96.70;;;;;;4948075;28;20093;-81
2021/06/08 00:58:35;;;;;;;69.85;41.00;;;12.60;96.80;;;;;;4946726;28;20035;-88
2021/06/08 01:01:04;;;;;;;74.25;41.63;;;12.60;96.90;;;;;;4916482;28;20045;-82
2021/06/08 01:03:32;;;;;;;78.18;44.50;;;12.50;96.90;;;;;;4949607;28;20114;-82
2021/06/08 01:05:58;;;;;;;83.55;46.42;;;12.50;97.00;;;;;;4945169;28;20031;-82
2021/06/08 01:08:24;;;;;;;84.43;47.05;;;12.40;96.80;;;;;;4939238;28;20067;-80
2021/06/08 01:10:50;;;;;;;87.32;49.13;;;12.50;96.90;;;;;;4952733;28;20085;-80
2021/06/08 01:13:16;;;;;;;86.78;46.47;;;12.40;97.00;;;;;;4958006;28;20071;-81
2021/06/08 01:15:42;;;;;;;108.88;52.47;;;12.40;96.90;;;;;;4932620;28;20164;-81
2021/06/08 01:18:08;;;;;;;92.05;50.35;;;12.40;97.10;;;;;;4945504;28;20066;-81
2021/06/08 01:20:34;;;;;;;99.65;51.35;;;12.40;96.90;;;;;;4967519;28;20043;-82
2021/06/08 01:23:00;;;;;;;101.10;49.20;;;12.40;97.00;;;;;;4953786;28;20035;-82
2021/06/08 01:25:26;;;;;;;102.22;50.60;;;12.40;97.10;;;;;;4939033;28;20043;-81
2021/06/08 01:27:52;;;;;;;100.80;50.72;;;12.40;97.00;;;;;;4957329;28;20043;-81
2021/06/08 01:30:28;;;;;;;108.65;52.03;;;12.40;97.00;;;;;;4946347;28;20057;-80
2021/06/08 01:32:55;;;;;;;103.10;51.63;;;12.40;96.90;;;;;;4946734;28;20493;-81
2021/06/08 01:35:23;;;;;;;118.30;53.03;;;12.40;97.00;;;;;;4955840;28;20031;-82
2021/06/08 01:37:49;;;;;;;111.38;50.88;;;12.40;97.10;;;;;;4960956;28;20050;-81
2021/06/08 01:40:18;;;;;;;110.18;51.33;;;12.40;97.10;;;;;;4940177;28;20049;-80
2021/06/08 01:42:46;;;;;;;113.82;46.83;;;12.40;97.10;;;;;;4952482;28;20126;-81
2021/06/08 01:45:16;;;;;;;100.25;46.72;;;12.40;97.30;;;;;;4958596;28;20051;-79
2021/06/08 01:47:42;;;;;;;92.82;43.47;;;12.40;97.50;;;;;;4957227;28;20062;-81
2021/06/08 01:50:09;;;;;;;101.00;47.85;;;12.30;97.40;;;;;;4931683;28;20069;-80
2021/06/08 01:52:43;;;;;;;97.13;48.35;;;12.30;97.10;;;;;;4938324;28;20039;-80
2021/06/08 01:55:31;;;;;;;103.55;47.25;;;12.20;97.20;;;;;;4979302;28;20049;-79
2021/06/08 01:58:18;;;;;;;95.40;45.60;;;12.20;97.30;;;;;;4956264;28;20919;-81
2021/06/08 02:00:47;;;;;;;100.35;46.17;;;12.20;97.50;;;;;;4958338;28;20039;-80
2021/06/08 02:03:30;;;;;;;100.07;46.92;;;12.20;97.50;;;;;;4956658;28;20497;-80
2021/06/08 02:06:18;;;;;;;85.50;44.38;;;12.20;97.40;;;;;;4954947;28;20039;-81
2021/06/08 02:09:06;;;;;;;94.72;46.00;;;12.20;97.40;;;;;;4952538;28;20039;-81
2021/06/08 02:12:11;;;;;;;91.15;45.63;;;12.20;97.50;;;;;;4956366;28;20114;-81
2021/06/08 02:14:49;;;;;;;87.93;44.17;;;12.20;97.50;;;;;;4956569;28;20065;-81
2021/06/08 02:17:25;;;;;;;95.28;44.95;;;12.20;97.30;;;;;;4968127;28;20060;-81
2021/06/08 02:19:55;;;;;;;82.43;43.97;;;12.20;97.20;;;;;;4952026;28;20063;-81
2021/06/08 02:22:25;;;;;;;78.30;42.75;;;12.10;97.20;;;;;;4957913;28;20058;-81
2021/06/08 02:24:53;;;;;;;81.60;42.85;;;12.10;97.00;;;;;;4964985;28;20137;-80
2021/06/08 02:27:24;;;;;;;72.15;42.25;;;12.10;97.20;;;;;;4956136;28;20054;-80
2021/06/08 02:29:52;;;;;;;82.85;44.67;;;12.10;97.20;;;;;;4958822;28;20043;-79
2021/06/08 02:32:19;;;;;;;83.00;45.08;;;12.00;97.30;;;;;;4943706;28;20073;-81
2021/06/08 02:34:46;;;;;;;86.53;46.70;;;12.00;97.40;;;;;;4939616;28;20055;-80
2021/06/08 02:37:34;;;;;;;90.53;46.03;;;12.00;97.70;;;;;;4945480;28;20043;-82
2021/06/08 02:40:06;;;;;;;110.57;47.25;;;11.90;97.40;;;;;;4943903;28;20652;-80
2021/06/08 02:42:35;;;;;;;94.78;47.70;;;11.90;97.50;;;;;;4951946;28;20039;-81
2021/06/08 02:45:15;;;;;;;90.97;47.30;;;11.90;97.80;;;;;;4963023;28;20066;-81
2021/06/08 02:47:46;;;;;;;88.85;47.03;;;11.90;97.80;;;;;;4969919;28;20028;-81
2021/06/08 02:50:14;;;;;;;96.97;49.30;;;11.90;97.60;;;;;;4967435;28;20045;-81
2021/06/08 02:52:42;;;;;;;83.13;46.47;;;11.90;97.70;;;;;;4952607;28;20118;-81
2021/06/08 02:55:09;;;;;;;99.38;44.58;;;11.90;97.70;;;;;;4952075;28;20099;-80
2021/06/08 02:57:37;;;;;;;85.20;46.10;;;11.90;97.60;;;;;;4931868;28;20121;-80
2021/06/08 03:00:08;;;;;;;81.70;44.17;;;11.90;97.60;;;;;;4967078;28;20043;-82
2021/06/08 03:02:38;;;;;;;171.02;42.28;;;11.90;97.50;;;;;;4955883;28;20039;-80
2021/06/08 03:05:16;;;;;;;86.80;44.58;;;11.90;97.80;;;;;;4957098;28;20051;-80
2021/06/08 03:07:48;;;;;;;100.68;44.67;;;11.90;97.60;;;;;;4940732;28;20246;-82
2021/06/08 03:10:18;;;;;;;86.85;46.15;;;11.90;97.60;;;;;;4966237;28;20030;-80
2021/06/08 03:12:47;;;;;;;71.32;39.80;;;11.90;97.50;;;;;;4967474;28;20101;-79
2021/06/08 03:15:17;;;;;;;80.43;43.05;;;11.90;97.50;;;;;;4963646;28;20043;-80
2021/06/08 03:17:45;;;;;;;71.55;39.72;;;11.90;97.50;;;;;;4969195;28;20077;-80
2021/06/08 03:20:24;;;;;;;102.53;45.15;;;11.90;97.40;;;;;;4969073;28;20034;-81
2021/06/08 03:22:54;;;;;;;116.43;45.45;;;11.90;97.40;;;;;;4971462;28;20485;-81
2021/06/08 03:25:21;;;;;;;86.55;44.60;;;11.90;97.40;;;;;;4966398;28;20037;-81
2021/06/08 03:27:48;;;;;;;130.23;47.00;;;11.80;97.60;;;;;;4957165;28;20110;-82
2021/06/08 03:30:17;;;;;;;94.38;47.47;;;11.80;97.50;;;;;;4962133;28;20038;-81
2021/06/08 03:32:44;;;;;;;103.80;47.97;;;11.80;97.50;;;;;;4927045;28;20068;-80
2021/06/08 03:35:11;;;;;;;94.75;44.58;;;11.80;97.60;;;;;;4959332;28;20496;-81
2021/06/08 03:37:40;;;;;;;101.10;46.28;;;11.80;97.60;;;;;;4945753;28;20027;-81
2021/06/08 03:40:07;;;;;;;83.57;45.28;;;11.80;97.70;;;;;;4954760;28;20379;-82
2021/06/08 03:42:33;;;;;;;92.97;47.30;;;11.70;97.60;;;;;;4939735;28;20042;-80
2021/06/08 03:44:59;;;;;;;137.35;52.75;;;11.70;97.80;;;;;;4937954;28;20527;-81
2021/06/08 03:47:26;;;;;;;162.35;51.85;;;11.70;97.80;;;;;;4941147;28;20035;-82
2021/06/08 03:49:55;;;;;;;97.18;49.28;;;11.70;97.70;;;;;;4923457;28;20107;-81
2021/06/08 03:52:21;;;;;;;111.22;51.35;;;11.70;97.80;;;;;;4956016;28;20046;-81
2021/06/08 03:54:46;;;;;;;85.50;46.42;;;11.70;97.70;;;;;;4948205;28;20046;-81
2021/06/08 03:57:14;;;;;;;120.85;53.33;;;11.80;97.80;;;;;;4927314;28;20560;-81
2021/06/08 03:59:41;;;;;;;147.55;51.50;;;11.80;97.80;;;;;;4938921;28;20046;-81
2021/06/08 04:02:07;;;;;;;157.43;47.53;;;11.80;97.80;;;;;;4944295;28;20445;-81
2021/06/08 04:04:34;;;;;;;136.93;46.03;;;11.80;97.90;;;;;;4965887;28;20099;-80
2021/06/08 04:07:00;;;;;;;115.80;44.28;;;11.80;97.80;;;;;;4942147;28;20032;-80
2021/06/08 04:09:26;;;;;;;95.75;42.13;;;11.70;97.80;;;;;;4929148;28;20126;-79
2021/06/08 04:11:52;;;;;;;102.15;40.58;;;11.80;97.80;;;;;;4966074;28;20050;-81
2021/06/08 04:14:20;;;;;;;106.18;40.17;;;11.80;97.80;;;;;;4955751;28;20031;-81
2021/06/08 04:16:47;;;;;;;126.25;40.97;;;11.70;97.80;;;;;;4941633;28;20573;-80
2021/06/08 04:19:13;;;;;;;138.35;40.97;;;11.70;97.90;;;;;;4960621;28;20721;-81
2021/06/08 04:21:47;;;;;;;126.00;42.75;;;11.60;98.00;;;;;;4946714;28;20039;-81
2021/06/08 04:24:13;;;;;;;138.18;44.35;;;11.50;98.10;;;;;;4969601;28;20045;-81
2021/06/08 04:26:40;;;;;;;81.25;41.13;;;11.50;98.00;;;;;;4949212;28;20031;-80
2021/06/08 04:29:07;;;;;;;84.20;41.20;;;11.60;98.10;;;;;;4953344;28;20098;-80
2021/06/08 04:31:40;;;;;;;105.03;42.40;;;11.50;98.10;;;;;;4958549;28;20065;-81
2021/06/08 04:34:06;;;;;;;102.40;41.45;;;11.50;98.10;;;;;;4970342;28;20092;-80
2021/06/08 04:36:32;;;;;;;144.75;44.80;;;11.60;98.10;;;;;;4962047;28;20050;-80
2021/06/08 04:38:58;;;;;;;88.15;43.40;;;11.60;98.10;;;;;;4939645;28;20026;-80
2021/06/08 04:41:25;;;;;;;81.80;41.80;;;11.60;98.10;;;;;;4927611;28;20137;-80
2021/06/08 04:43:51;;;;;;;92.90;40.92;;;11.60;98.20;;;;;;4963984;28;20045;-79
2021/06/08 04:46:17;;;;;;;78.38;41.15;;;11.70;98.20;;;;;;4961804;28;20050;-80
2021/06/08 04:48:51;;;;;;;82.40;42.08;;;11.70;98.10;;;;;;5118732;23;20501;-86
2021/06/08 04:51:38;;;;;;;70.32;38.78;;;11.70;98.20;;;;;;4943729;28;20054;-85
2021/06/08 04:54:12;;;;;;;122.82;40.63;;;11.80;98.10;;;;;;4954251;28;20053;-86
2021/06/08 04:56:59;;;;;;;75.90;37.42;;;11.80;98.10;;;;;;4926224;29;20058;-85
2021/06/08 04:59:51;;;;;;;76.90;39.10;;;11.80;98.10;;;;;;4957213;28;20031;-86
2021/06/08 05:02:33;;;;;;;80.78;39.38;;;11.80;98.00;;;;;;4940574;28;20047;-89
2021/06/08 05:05:07;;;;;;;75.72;36.47;;;11.80;98.10;;;;;;4961550;28;20047;-84
2021/06/08 05:07:39;;;;;;;63.58;36.58;;;11.80;98.00;;;;;;4937294;28;20493;-89
2021/06/08 05:10:09;;;;;;;87.68;39.47;;;11.80;98.00;;;;;;4938234;28;20706;-85
2021/06/08 05:12:38;;;;;;;81.30;39.13;;;11.80;98.00;;;;;;4938638;28;20043;-87
2021/06/08 05:15:06;;;;;;;83.65;40.10;;;11.90;98.00;;;;;;4952506;28;20069;-83
2021/06/08 05:17:33;;;;;;;87.05;38.00;;;11.80;97.80;;;;;;4937051;28;20520;-86
2021/06/08 05:22:32;;;;;;;88.95;39.83;;;11.80;97.90;;;;;;4999401;23;20120;-86
2021/06/08 05:25:03;;;;;;;99.63;46.47;;;11.80;97.90;;;;;;4949886;28;20047;-85
2021/06/08 05:27:51;;;;;;;86.40;44.05;;;11.80;98.00;;;;;;4911098;28;20042;-86
2021/06/08 05:30:19;;;;;;;165.38;48.38;;;11.80;98.30;;;;;;4929322;28;20039;-85
2021/06/08 05:32:46;;;;;;;121.97;47.22;;;11.80;98.10;;;;;;4905819;28;20058;-86
2021/06/08 05:35:12;;;;;;;81.32;44.85;;;11.90;98.10;;;;;;4919563;28;20094;-85
2021/06/08 05:37:42;;;;;;;92.70;44.20;;;11.90;98.10;;;;;;4922422;29;20047;-85
2021/06/08 05:40:09;;;;;;;98.85;43.75;;;11.90;98.10;;;;;;4941852;28;20110;-85
2021/06/08 05:42:35;;;;;;;88.45;45.67;;;12.00;98.10;;;;;;4935073;29;20546;-85
2021/06/08 05:45:01;;;;;;;100.55;48.35;;;11.90;98.00;;;;;;4946012;28;20130;-86
2021/06/08 05:47:47;;;;;;;90.97;45.25;;;12.00;98.00;;;;;;4925527;29;20057;-87
2021/06/08 05:50:17;;;;;;;87.00;46.72;;;12.00;98.00;;;;;;4909287;28;20039;-85
2021/06/08 05:52:45;;;;;;;79.50;41.22;;;12.10;98.00;;;;;;4932976;29;20073;-85
2021/06/08 05:55:12;;;;;;;73.60;39.63;;;12.10;98.00;;;;;;4924299;29;20041;-85
2021/06/08 05:57:58;;;;;;;74.70;40.47;;;12.20;97.90;;;;;;4910483;28;20486;-85
2021/06/08 06:00:28;;;;;;;73.25;40.67;;;12.20;97.90;;;;;;4933673;28;20098;-85
2021/06/08 06:02:56;;;;;;;71.47;40.05;;;12.30;97.90;;;;;;4952413;28;20442;-86
2021/06/08 06:05:43;;;;;;;67.55;39.75;;;12.30;97.80;;;;;;4918616;29;20152;-85
2021/06/08 06:08:09;;;;;;;88.00;46.50;;;12.30;97.80;;;;;;4927586;28;20204;-86
2021/06/08 06:10:35;;;;;;;75.10;41.08;;;12.30;97.70;;;;;;4910869;29;20756;-88
2021/06/08 06:13:01;;;;;;;80.65;43.17;;;12.30;97.70;;;;;;4914955;29;20046;-87
2021/06/08 06:15:31;;;;;;;78.22;43.10;;;12.40;97.70;;;;;;4929123;29;20117;-86
2021/06/08 06:17:59;;;;;;;76.00;42.17;;;12.40;97.70;;;;;;4927604;29;20042;-86
2021/06/08 06:20:51;;;;;;;74.05;40.45;;;12.40;97.60;;;;;;4913045;29;20051;-86
2021/06/08 06:23:20;;;;;;;73.90;41.20;;;12.50;97.60;;;;;;4917658;28;20044;-86
2021/06/08 06:25:58;;;;;;;72.85;40.83;;;12.50;97.50;;;;;;4933667;28;20035;-86
2021/06/08 06:28:45;;;;;;;68.47;39.10;;;12.60;97.50;;;;;;4908907;29;20046;-85
2021/06/08 06:31:21;;;;;;;70.35;39.20;;;12.50;97.40;;;;;;4910606;28;20073;-85
2021/06/08 06:33:55;;;;;;;66.13;39.20;;;12.50;97.40;;;;;;4918440;28;20112;-85
2021/06/08 06:36:25;;;;;;;79.47;42.15;;;12.50;97.40;;;;;;4914988;29;20087;-86
2021/06/08 06:38:52;;;;;;;65.00;38.92;;;12.60;97.40;;;;;;4914789;28;20106;-86
2021/06/08 06:41:19;;;;;;;78.72;42.10;;;12.60;97.30;;;;;;4917504;29;20039;-86
2021/06/08 06:43:51;;;;;;;79.15;42.70;;;12.60;97.40;;;;;;4910810;28;20123;-86
2021/06/08 06:46:18;;;;;;;69.10;39.30;;;12.60;97.40;;;;;;4933121;28;20050;-85
2021/06/08 06:48:50;;;;;;;70.93;39.92;;;12.70;97.40;;;;;;4922666;28;20032;-86
2021/06/08 06:51:19;;;;;;;72.95;40.75;;;12.60;97.20;;;;;;4920506;28;20130;-85
2021/06/08 06:53:48;;;;;;;61.33;35.90;;;12.70;97.20;;;;;;4931357;28;20087;-85
2021/06/08 06:56:17;;;;;;;66.68;37.30;;;12.70;97.20;;;;;;4943356;28;20032;-85
2021/06/08 06:58:44;;;;;;;61.83;35.50;;;12.70;97.20;;;;;;4930668;29;20032;-85
2021/06/08 07:01:12;;;;;;;55.13;31.42;;;12.80;97.20;;;;;;4922810;28;20035;-86
2021/06/08 07:03:38;;;;;;;47.47;29.15;;;12.80;97.10;;;;;;4921356;29;20043;-86
2021/06/08 07:06:07;;;;;;;44.45;29.17;;;12.80;96.90;;;;;;4930677;28;20035;-84
2021/06/08 07:08:35;;;;;;;47.38;28.77;;;12.80;97.00;;;;;;4926768;29;20043;-86
2021/06/08 07:11:01;;;;;;;45.53;28.30;;;12.90;97.00;;;;;;4927585;29;20039;-87
2021/06/08 07:13:27;;;;;;;45.00;29.92;;;13.00;97.00;;;;;;4925186;29;20182;-88
2021/06/08 07:15:54;;;;;;;47.20;28.98;;;13.10;96.90;;;;;;4929688;29;20369;-87
2021/06/08 07:18:27;;;;;;;44.35;28.45;;;13.20;96.80;;;;;;4938733;28;20116;-86
2021/06/08 07:20:54;;;;;;;44.92;28.65;;;13.30;96.70;;;;;;4929859;28;20040;-85
2021/06/08 07:23:22;;;;;;;47.03;29.90;;;13.30;96.70;;;;;;4922374;29;20036;-86
2021/06/08 07:25:51;;;;;;;44.38;28.90;;;13.40;96.60;;;;;;4930268;28;20039;-86
2021/06/08 07:28:25;;;;;;;44.53;29.48;;;13.50;96.60;;;;;;4939754;28;20039;-86
2021/06/08 07:31:03;;;;;;;43.95;28.90;;;13.60;96.50;;;;;;4922757;29;20038;-87
2021/06/08 07:33:55;;;;;;;39.03;26.60;;;13.80;96.40;;;;;;4924091;29;20032;-86
2021/06/08 07:36:28;;;;;;;35.40;24.33;;;14.10;96.40;;;;;;4925583;29;20051;-86
2021/06/08 07:39:02;;;;;;;34.17;24.10;;;14.30;96.00;;;;;;4923586;28;20134;-86
2021/06/08 07:41:58;;;;;;;33.40;23.98;;;14.50;95.70;;;;;;4935392;28;20055;-86
2021/06/08 07:44:29;;;;;;;36.17;23.85;;;14.70;95.50;;;;;;4945194;28;20039;-86
2021/06/08 07:47:04;;;;;;;29.63;21.40;;;14.80;95.40;;;;;;4942158;28;20051;-87
2021/06/08 07:49:51;;;;;;;29.15;20.75;;;15.00;94.70;;;;;;4935837;28;20457;-86
2021/06/08 07:52:38;;;;;;;29.10;20.70;;;15.10;94.60;;;;;;4945404;28;20039;-85
2021/06/08 07:55:06;;;;;;;26.00;20.05;;;15.20;94.40;;;;;;4917798;29;20149;-86
2021/06/08 07:57:39;;;;;;;26.38;20.25;;;15.30;94.30;;;;;;4947139;29;20066;-86
2021/06/08 08:00:24;;;;;;;28.48;20.58;;;15.30;94.00;;;;;;4929211;29;20090;-86
2021/06/08 08:02:55;;;;;;;29.38;20.88;;;15.40;93.90;;;;;;4910693;28;20102;-84
2021/06/08 08:05:33;;;;;;;31.77;22.13;;;15.50;93.90;;;;;;4900083;29;20039;-85
2021/06/08 08:08:01;;;;;;;30.83;21.98;;;15.50;93.60;;;;;;4941365;28;20047;-86
2021/06/08 08:10:27;;;;;;;30.10;20.88;;;15.50;93.80;;;;;;4943065;28;20062;-85
2021/06/08 08:12:57;;;;;;;27.92;20.30;;;15.60;93.90;;;;;;4935637;29;20090;-86
2021/06/08 08:15:28;;;;;;;29.17;20.15;;;15.80;93.60;;;;;;4907471;29;20422;-86
2021/06/08 08:17:54;;;;;;;26.48;18.65;;;15.90;93.30;;;;;;4914613;28;20409;-86
2021/06/08 08:20:58;;;;;;;28.23;17.48;;;15.90;93.20;;;;;;4887468;28;20486;-85
2021/06/08 08:23:42;;;;;;;24.73;18.30;;;16.10;93.20;;;;;;4954604;28;20043;-85
2021/06/08 08:26:27;;;;;;;22.98;16.38;;;16.20;93.10;;;;;;4920063;29;20126;-85
2021/06/08 08:29:01;;;;;;;21.73;15.95;;;16.40;92.90;;;;;;4930208;29;20067;-86
2021/06/08 08:31:32;;;;;;;21.88;15.88;;;16.40;92.70;;;;;;4935605;29;20682;-85
2021/06/08 08:34:00;;;;;;;22.20;15.80;;;16.50;92.50;;;;;;4945849;28;20118;-86
2021/06/08 08:36:30;;;;;;;23.45;16.33;;;16.70;92.50;;;;;;4928523;29;20123;-88
2021/06/08 08:38:57;;;;;;;23.80;17.73;;;16.70;91.90;;;;;;4927595;28;20098;-87
2021/06/08 08:41:23;;;;;;;24.80;16.95;;;16.80;92.10;;;;;;4928103;28;20119;-86
2021/06/08 08:43:57;;;;;;;26.83;17.88;;;16.80;92.20;;;;;;4906378;29;20052;-85
2021/06/08 08:46:43;;;;;;;24.88;15.18;;;16.90;92.20;;;;;;4925830;29;20039;-87
2021/06/08 08:49:10;;;;;;;24.08;15.85;;;17.00;92.20;;;;;;4919091;29;20479;-86
2021/06/08 08:51:41;;;;;;;21.05;13.50;;;17.00;92.00;;;;;;4911307;29;20382;-84
2021/06/08 08:54:19;;;;;;;23.33;15.73;;;17.00;91.40;;;;;;4932760;28;20056;-87
2021/06/08 08:56:48;;;;;;;22.45;14.60;;;17.00;91.30;;;;;;4945180;28;20043;-91
2021/06/08 08:59:20;;;;;;;21.10;14.45;;;17.10;91.20;;;;;;4945224;29;20035;-83
2021/06/08 09:02:05;;;;;;;21.58;13.20;;;17.10;91.20;;;;;;4935126;29;20398;-82
2021/06/08 09:04:32;;;;;;;25.58;13.90;;;17.20;91.20;;;;;;4925657;29;20043;-82
2021/06/08 09:06:58;;;;;;;20.85;13.90;;;17.30;90.80;;;;;;4916475;29;20402;-85
2021/06/08 09:09:24;;;;;;;22.45;14.10;;;17.30;90.70;;;;;;4933713;29;20083;-85
2021/06/08 09:11:50;;;;;;;21.52;14.73;;;17.40;91.00;;;;;;4957306;28;20038;-85
2021/06/08 09:14:16;;;;;;;21.40;13.60;;;17.40;91.10;;;;;;4959833;28;20046;-84
2021/06/08 09:16:53;;;;;;;19.40;12.38;;;17.50;91.20;;;;;;4968479;28;20047;-83
2021/06/08 09:19:19;;;;;;;16.33;11.15;;;17.60;91.10;;;;;;4950161;28;20031;-82
2021/06/08 09:21:54;;;;;;;16.98;11.27;;;17.60;90.70;;;;;;4912938;28;20035;-83
2021/06/08 09:24:26;;;;;;;18.05;10.35;;;17.70;90.50;;;;;;4934950;28;20090;-82
2021/06/08 09:27:05;;;;;;;18.13;11.70;;;17.80;90.80;;;;;;4938661;28;20110;-82
2021/06/08 09:29:42;;;;;;;22.65;13.10;;;17.90;90.90;;;;;;4913947;28;20300;-83
2021/06/08 09:32:24;;;;;;;19.73;12.75;;;17.90;90.80;;;;;;4949021;28;20090;-82
2021/06/08 09:34:54;;;;;;;23.10;13.30;;;17.90;90.40;;;;;;4948090;28;20062;-81
2021/06/08 09:37:43;;;;;;;23.48;12.10;;;18.00;90.20;;;;;;4932713;28;20421;-83
2021/06/08 09:40:22;;;;;;;20.92;12.18;;;18.10;89.60;;;;;;4918956;28;20040;-83
2021/06/08 09:43:06;;;;;;;22.45;12.68;;;18.20;88.50;;;;;;4946622;28;20036;-80
2021/06/08 09:45:53;;;;;;;23.85;12.30;;;18.30;88.50;;;;;;4940646;28;20035;-83
2021/06/08 09:48:19;;;;;;;27.10;14.02;;;18.30;87.40;;;;;;4922136;29;21157;-82
2021/06/08 09:50:52;;;;;;;24.92;12.68;;;18.40;88.30;;;;;;4895408;29;20126;-81
2021/06/08 09:53:30;;;;;;;17.17;9.98;;;18.50;87.90;;;;;;4934723;28;20122;-82
2021/06/08 09:56:06;;;;;;;20.60;11.15;;;18.50;85.30;;;;;;4938449;28;20043;-84
2021/06/08 09:58:46;;;;;;;23.55;11.60;;;18.60;85.30;;;;;;4937434;28;20102;-84
2021/06/08 10:01:24;;;;;;;21.92;11.25;;;18.60;83.60;;;;;;4936974;28;20722;-85
2021/06/08 10:04:01;;;;;;;17.75;9.15;;;18.70;83.20;;;;;;4941337;28;20817;-83
2021/06/08 10:06:38;;;;;;;9.70;5.55;;;18.70;83.30;;;;;;4937984;28;20047;-83
2021/06/08 10:09:09;;;;;;;11.77;6.00;;;18.70;81.00;;;;;;4921060;28;20197;-85
2021/06/08 10:11:39;;;;;;;14.45;7.90;;;18.80;79.10;;;;;;4929630;28;20167;-84
2021/06/08 10:14:20;;;;;;;21.25;11.63;;;18.80;79.40;;;;;;4935140;28;20085;-85
2021/06/08 10:16:59;;;;;;;24.25;12.38;;;18.90;81.10;;;;;;4954080;28;20066;-84
2021/06/08 10:19:26;;;;;;;25.92;13.30;;;19.00;80.90;;;;;;4941069;28;20517;-86
2021/06/08 10:21:54;;;;;;;23.77;12.80;;;19.00;80.80;;;;;;4914114;29;20055;-85
2021/06/08 10:24:25;;;;;;;22.17;11.52;;;19.00;80.20;;;;;;4940442;29;20474;-85
2021/06/08 10:26:56;;;;;;;25.13;12.80;;;19.10;80.30;;;;;;4940583;29;20046;-84
2021/06/08 10:29:27;;;;;;;14.80;7.50;;;19.20;79.80;;;;;;4948160;29;20023;-84
2021/06/08 10:31:55;;;;;;;19.05;10.60;;;19.20;77.80;;;;;;4946505;28;20043;-82
2021/06/08 10:34:29;;;;;;;16.33;8.07;;;19.30;77.70;;;;;;4923423;28;20638;-82
2021/06/08 10:36:56;;;;;;;20.75;9.30;;;19.30;76.90;;;;;;4937645;29;20618;-81
2021/06/08 10:39:25;;;;;;;20.08;10.43;;;19.40;76.50;;;;;;4919141;29;20059;-84
2021/06/08 10:41:55;;;;;;;19.92;10.77;;;19.50;76.10;;;;;;4953266;29;20118;-81
2021/06/08 10:44:26;;;;;;;22.73;10.38;;;19.60;76.30;;;;;;4958723;28;20031;-82
2021/06/08 10:47:07;;;;;;;18.17;9.45;;;19.70;75.90;;;;;;4948642;28;20110;-82
2021/06/08 10:49:38;;;;;;;16.40;9.13;;;19.70;77.20;;;;;;4940979;28;20241;-81
2021/06/08 10:52:13;;;;;;;17.07;8.67;;;19.80;76.10;;;;;;4936469;28;20046;-82
2021/06/08 10:54:40;;;;;;;16.75;8.23;;;19.80;76.20;;;;;;4941232;28;20046;-82
2021/06/08 10:57:12;;;;;;;12.95;7.38;;;19.90;75.10;;;;;;4956299;28;20047;-82
2021/06/08 10:59:46;;;;;;;14.60;8.00;;;20.00;74.30;;;;;;4948206;29;20024;-82
2021/06/08 11:02:33;;;;;;;14.85;7.95;;;20.00;72.40;;;;;;4937366;28;20031;-81
2021/06/08 11:04:59;;;;;;;12.82;7.05;;;20.10;72.60;;;;;;4929678;28;20122;-83
2021/06/08 11:07:47;;;;;;;13.98;8.05;;;20.10;71.80;;;;;;4911292;29;20496;-83
2021/06/08 11:10:29;;;;;;;16.42;8.80;;;20.20;74.10;;;;;;4935220;28;20048;-83
2021/06/08 11:13:07;;;;;;;17.52;8.15;;;20.30;73.60;;;;;;4944692;28;20043;-84
2021/06/08 11:15:33;;;;;;;13.38;7.68;;;20.30;73.20;;;;;;4940536;28;20034;-80
2021/06/08 11:17:59;;;;;;;12.15;6.45;;;20.30;71.20;;;;;;4953708;28;20036;-81
2021/06/08 11:20:29;;;;;;;9.00;4.53;;;20.30;70.60;;;;;;4939811;28;20508;-80
2021/06/08 11:23:00;;;;;;;5.93;4.00;;;20.40;69.00;;;;;;4951602;29;20042;-81
2021/06/08 11:25:41;;;;;;;7.53;4.28;;;20.50;67.80;;;;;;4940199;28;20035;-81
2021/06/08 11:28:15;;;;;;;8.82;5.07;;;20.50;69.50;;;;;;4942967;28;20039;-81
2021/06/08 11:30:53;;;;;;;10.45;5.30;;;20.60;69.10;;;;;;4931575;29;20989;-80
2021/06/08 11:33:43;;;;;;;9.20;3.92;;;20.70;69.60;;;;;;4939619;28;20456;-80
2021/06/08 11:36:23;;;;;;;11.32;4.50;;;20.80;67.20;;;;;;4957868;28;20090;-82
2021/06/08 11:38:56;;;;;;;6.20;3.55;;;20.80;64.80;;;;;;4952384;28;20588;-84
2021/06/08 11:41:23;;;;;;;6.28;3.55;;;20.80;66.50;;;;;;4928359;29;20437;-82
2021/06/08 11:43:55;;;;;;;9.90;4.00;;;20.90;66.10;;;;;;4952272;28;20043;-83
2021/06/08 11:46:30;;;;;;;5.50;3.53;;;20.90;65.70;;;;;;4952319;29;20066;-81
2021/06/08 11:49:14;;;;;;;8.57;3.53;;;21.00;64.80;;;;;;4950434;29;20031;-84
2021/06/08 11:51:46;;;;;;;5.80;3.08;;;21.10;63.60;;;;;;4939502;28;20047;-82
2021/06/08 11:54:26;;;;;;;4.57;2.85;;;21.10;63.50;;;;;;4939065;28;20088;-83
2021/06/08 11:57:03;;;;;;;5.30;2.88;;;21.10;63.10;;;;;;4955604;28;20086;-83
2021/06/08 11:59:44;;;;;;;4.40;2.90;;;21.10;62.70;;;;;;4946613;28;20102;-79
2021/06/08 12:02:51;;;;;;;4.85;2.80;;;21.20;63.20;;;;;;4941205;28;20123;-82
2021/06/08 12:05:22;;;;;;;5.38;2.80;;;21.20;60.80;;;;;;4938009;28;20043;-82
2021/06/08 12:08:01;;;;;;;4.27;2.93;;;21.30;62.20;;;;;;4937566;28;20126;-81
2021/06/08 12:10:32;;;;;;;3.85;2.90;;;21.30;62.90;;;;;;4934523;28;21061;-80
2021/06/08 12:12:59;;;;;;;4.57;2.60;;;21.30;62.00;;;;;;4943190;28;20098;-85
2021/06/08 12:15:28;;;;;;;4.60;2.60;;;21.30;61.70;;;;;;4948639;28;20026;-81
2021/06/08 12:18:16;;;;;;;4.80;3.30;;;21.40;61.40;;;;;;4952878;28;20700;-84
2021/06/08 12:20:47;;;;;;;5.15;3.30;;;21.40;61.90;;;;;;4948680;28;20651;-84
2021/06/08 12:23:29;;;;;;;5.93;3.55;;;21.40;62.20;;;;;;4938483;29;20039;-83
2021/06/08 12:26:18;;;;;;;4.85;3.22;;;21.40;62.10;;;;;;4950459;28;20042;-83
2021/06/08 12:29:03;;;;;;;5.72;3.30;;;21.50;61.00;;;;;;4946819;29;20054;-83
2021/06/08 12:31:30;;;;;;;4.78;3.53;;;21.60;60.70;;;;;;4928603;29;20606;-83
2021/06/08 12:33:57;;;;;;;6.55;3.78;;;21.60;61.80;;;;;;4926332;28;20104;-80
2021/06/08 12:36:24;;;;;;;7.05;4.22;;;21.60;61.40;;;;;;4933385;28;20046;-81
2021/06/08 12:38:52;;;;;;;4.53;3.30;;;21.60;62.20;;;;;;4933771;28;20040;-81
2021/06/08 12:41:22;;;;;;;5.93;3.00;;;21.60;62.60;;;;;;4946407;28;20031;-82
2021/06/08 12:43:52;;;;;;;5.38;4.07;;;21.70;62.90;;;;;;4944795;28;20039;-84
2021/06/08 12:46:28;;;;;;;5.05;4.35;;;21.70;63.20;;;;;;4936824;28;20030;-83
2021/06/08 12:49:12;;;;;;;6.72;3.90;;;21.80;61.10;;;;;;4922344;28;20038;-85
2021/06/08 12:51:40;;;;;;;5.30;3.97;;;21.80;59.20;;;;;;4949004;28;20445;-83
2021/06/08 12:54:26;;;;;;;7.28;4.00;;;21.90;61.50;;;;;;4946697;28;20041;-82
2021/06/08 12:56:52;;;;;;;8.18;4.90;;;21.90;61.40;;;;;;4950144;28;20027;-82